createdAt,value
2023-01-13T00:00:05.585Z,70.94
2023-01-13T00:02:37.054Z,71.71
2023-01-13T00:05:05.274Z,71.23
2023-01-13T00:07:32.629Z,70.92
2023-01-13T00:10:01.007Z,69.87
2023-01-13T00:12:28.483Z,69.21
2023-01-13T00:14:56.055Z,69.30
2023-01-13T00:17:23.496Z,69.59
2023-01-13T00:19:50.541Z,68.48
2023-01-13T00:22:17.786Z,69.01
2023-01-13T00:24:46.178Z,68.42
2023-01-13T00:27:18.287Z,68.03
2023-01-13T00:29:45.318Z,67.86
2023-01-13T00:32:12.249Z,69.09
2023-01-13T00:34:46.757Z,68.34
2023-01-13T00:37:13.558Z,70.65
2023-01-13T00:40:00.163Z,70.77
2023-01-13T00:42:27.335Z,68.95
2023-01-13T00:44:55.716Z,69.53
2023-01-13T00:47:29.685Z,69.69
2023-01-13T00:50:02.282Z,70.66
2023-01-13T00:52:36.572Z,68.06
2023-01-13T00:55:04.335Z,67.33
2023-01-13T00:57:31.037Z,69.17
2023-01-13T00:59:58.076Z,69.46
2023-01-13T01:02:30.911Z,69.80
2023-01-13T01:04:58.077Z,68.76
2023-01-13T01:07:25.161Z,68.26
2023-01-13T01:09:52.572Z,69.93
2023-01-13T01:12:19.680Z,69.58
2023-01-13T01:14:48.568Z,70.04
2023-01-13T01:17:19.180Z,69.77
2023-01-13T01:19:47.690Z,69.14
2023-01-13T01:22:21.705Z,70.47
2023-01-13T01:24:49.656Z,68.39
2023-01-13T01:27:16.691Z,67.81
2023-01-13T01:29:43.459Z,67.88
2023-01-13T01:32:10.465Z,69.63
2023-01-13T01:34:37.203Z,69.68
2023-01-13T01:37:04.311Z,70.08
2023-01-13T01:39:31.453Z,70.30
2023-01-13T01:42:04.376Z,69.71
2023-01-13T01:44:50.758Z,69.01
2023-01-13T01:47:18.116Z,69.36
2023-01-13T01:49:51.671Z,67.39
2023-01-13T01:52:40.755Z,68.11
2023-01-13T01:55:42.830Z,70.36
2023-01-13T01:58:22.492Z,68.23
2023-01-13T02:00:53.277Z,69.67
2023-01-13T02:03:20.280Z,67.81
2023-01-13T02:05:47.277Z,69.65
2023-01-13T02:08:20.121Z,70.57
2023-01-13T02:10:50.472Z,69.61
2023-01-13T02:13:17.751Z,69.50
2023-01-13T02:15:56.914Z,69.05
2023-01-13T02:19:02.128Z,69.41
2023-01-13T02:22:15.329Z,69.79
2023-01-13T02:25:11.935Z,69.52
2023-01-13T02:28:03.567Z,69.05
2023-01-13T02:30:37.293Z,68.73
2023-01-13T02:33:23.199Z,69.56
2023-01-13T02:35:59.908Z,69.03
2023-01-13T02:38:39.521Z,68.24
2023-01-13T02:41:13.337Z,69.26
2023-01-13T02:43:40.366Z,69.35
2023-01-13T02:46:20.619Z,69.09
2023-01-13T02:48:47.715Z,68.77
2023-01-13T02:51:19.004Z,69.14
2023-01-13T02:54:12.964Z,69.58
2023-01-13T02:56:44.462Z,68.78
2023-01-13T02:59:11.500Z,69.27
2023-01-13T03:01:43.884Z,68.85
2023-01-13T03:04:15.661Z,69.09
2023-01-13T03:07:00.886Z,69.71
2023-01-13T03:09:39.577Z,69.24
2023-01-13T03:12:54.888Z,70.00
2023-01-13T03:15:29.731Z,69.57
2023-01-13T03:18:19.965Z,69.41
2023-01-13T03:21:02.710Z,69.17
2023-01-13T03:23:50.352Z,70.47
2023-01-13T03:26:50.656Z,70.02
2023-01-13T03:29:20.909Z,71.87
2023-01-13T03:31:56.395Z,71.86
2023-01-13T03:34:25.417Z,71.70
2023-01-13T03:36:57.284Z,72.08
2023-01-13T03:39:30.059Z,71.96
2023-01-13T03:42:07.698Z,72.37
2023-01-13T03:45:05.598Z,72.61
2023-01-13T03:47:50.881Z,73.19
2023-01-13T03:50:22.549Z,74.16
2023-01-13T03:52:51.983Z,73.44
2023-01-13T03:55:22.531Z,73.70
2023-01-13T03:58:10.973Z,73.58
2023-01-13T04:00:58.800Z,73.42
2023-01-13T04:03:51.105Z,72.49
2023-01-13T04:06:37.166Z,73.87
2023-01-13T04:09:21.046Z,74.07
2023-01-13T04:12:07.669Z,75.46
2023-01-13T04:14:34.763Z,75.05
2023-01-13T04:17:07.533Z,75.13
2023-01-13T04:19:34.554Z,75.85
2023-01-13T04:22:02.347Z,76.57
2023-01-13T04:24:29.377Z,77.54
2023-01-13T04:26:59.009Z,78.10
2023-01-13T04:29:27.198Z,78.03
2023-01-13T04:31:54.309Z,78.98
2023-01-13T04:34:21.416Z,79.39
2023-01-13T04:36:48.605Z,79.49
2023-01-13T04:39:21.493Z,79.46
2023-01-13T04:41:48.582Z,80.73
2023-01-13T04:44:18.477Z,81.67
2023-01-13T04:46:47.539Z,81.55
2023-01-13T04:49:14.569Z,81.73
2023-01-13T04:51:41.387Z,82.75
2023-01-13T04:54:10.229Z,83.13
2023-01-13T04:56:38.258Z,83.67
2023-01-13T04:59:07.198Z,83.74
2023-01-13T05:01:34.349Z,84.55
2023-01-13T05:04:01.389Z,84.22
2023-01-13T05:06:31.140Z,83.92
2023-01-13T05:08:58.256Z,83.25
2023-01-13T05:11:28.581Z,83.31
2023-01-13T05:13:56.137Z,83.53
2023-01-13T05:16:23.227Z,83.67
2023-01-13T05:19:15.013Z,83.71
2023-01-13T05:21:44.568Z,84.22
2023-01-13T05:24:12.769Z,84.41
2023-01-13T05:26:49.406Z,84.91
2023-01-13T05:29:17.395Z,85.15
2023-01-13T05:31:44.391Z,85.47
2023-01-13T05:34:11.381Z,84.83
2023-01-13T05:36:39.804Z,85.22
2023-01-13T05:39:09.735Z,84.57
2023-01-13T05:41:36.495Z,85.00
2023-01-13T05:44:03.526Z,85.04
2023-01-13T05:46:30.347Z,85.26
2023-01-13T05:49:00.062Z,85.98
2023-01-13T05:51:28.587Z,85.60
2023-01-13T05:53:55.676Z,85.48
2023-01-13T05:56:25.217Z,85.79
2023-01-13T05:58:52.022Z,86.28
2023-01-13T06:01:19.128Z,86.46
2023-01-13T06:03:45.944Z,85.83
2023-01-13T06:06:16.431Z,85.74
2023-01-13T06:08:45.258Z,85.84
2023-01-13T06:11:14.946Z,86.01
2023-01-13T06:13:42.533Z,86.36
2023-01-13T06:16:10.713Z,86.52
2023-01-13T06:18:38.738Z,86.37
2023-01-13T06:21:05.661Z,86.09
2023-01-13T06:23:32.455Z,85.56
2023-01-13T06:26:15.459Z,86.16
2023-01-13T06:28:42.254Z,86.24
2023-01-13T06:31:10.298Z,86.91
2023-01-13T06:33:38.009Z,87.33
2023-01-13T06:36:09.069Z,87.37
2023-01-13T06:38:37.442Z,86.91
2023-01-13T06:41:10.228Z,86.45
2023-01-13T06:43:37.969Z,86.08
2023-01-13T06:46:05.317Z,86.98
2023-01-13T06:48:33.919Z,86.38
2023-01-13T06:51:05.424Z,85.86
2023-01-13T06:53:32.242Z,86.57
2023-01-13T06:55:59.331Z,86.06
2023-01-13T06:58:26.072Z,86.70
2023-01-13T07:00:52.841Z,86.68
2023-01-13T07:03:20.170Z,86.13
2023-01-13T07:05:57.351Z,85.81
2023-01-13T07:08:24.120Z,86.34
2023-01-13T07:10:51.304Z,86.91
2023-01-13T07:13:18.206Z,86.38
2023-01-13T07:15:53.309Z,86.27
2023-01-13T07:18:20.106Z,86.46
2023-01-13T07:20:52.658Z,85.18
2023-01-13T07:23:19.710Z,85.88
2023-01-13T07:25:46.758Z,85.16
2023-01-13T07:28:16.063Z,85.41
2023-01-13T07:30:43.106Z,86.07
2023-01-13T07:33:10.195Z,87.01
2023-01-13T07:35:37.275Z,86.83
2023-01-13T07:38:04.253Z,88.43
2023-01-13T07:40:31.306Z,88.21
2023-01-13T07:43:03.674Z,87.84
2023-01-13T07:45:40.397Z,86.91
2023-01-13T07:48:07.508Z,86.93
2023-01-13T07:50:34.606Z,87.11
2023-01-13T07:53:01.714Z,87.79
2023-01-13T07:55:44.910Z,87.58
2023-01-13T07:58:12.956Z,87.22
2023-01-13T08:00:40.404Z,87.65
2023-01-13T08:03:13.700Z,88.31
2023-01-13T08:05:42.061Z,88.15
2023-01-13T08:08:09.013Z,88.31
2023-01-13T08:10:35.981Z,88.11
2023-01-13T08:13:10.439Z,88.20
2023-01-13T08:15:40.190Z,88.74
2023-01-13T08:18:11.147Z,88.63
2023-01-13T08:20:39.051Z,88.66
2023-01-13T08:23:07.941Z,88.53
2023-01-13T08:25:34.999Z,87.95
2023-01-13T08:28:02.435Z,88.33
2023-01-13T08:30:30.435Z,88.38
2023-01-13T08:33:04.722Z,88.26
2023-01-13T08:35:31.801Z,88.73
2023-01-13T08:37:58.844Z,88.13
2023-01-13T08:40:25.891Z,88.20
2023-01-13T08:42:59.294Z,88.49
2023-01-13T08:45:28.963Z,87.80
2023-01-13T08:47:56.211Z,87.97
2023-01-13T08:50:23.198Z,87.69
2023-01-13T08:52:50.279Z,87.96
2023-01-13T08:55:17.129Z,87.73
2023-01-13T08:57:50.955Z,88.29
2023-01-13T09:00:18.950Z,87.46
2023-01-13T09:02:46.030Z,87.39
2023-01-13T09:05:13.072Z,87.99
2023-01-13T09:07:40.088Z,88.16
2023-01-13T09:10:08.133Z,87.92
2023-01-13T09:12:35.250Z,88.49
2023-01-13T09:15:02.428Z,88.15
2023-01-13T09:17:29.701Z,88.01
2023-01-13T09:19:57.888Z,87.74
2023-01-13T09:22:27.645Z,87.82
2023-01-13T09:24:54.630Z,87.47
2023-01-13T09:27:21.383Z,87.53
2023-01-13T09:29:48.874Z,87.40
2023-01-13T09:32:16.111Z,87.75
2023-01-13T09:34:43.240Z,87.03
2023-01-13T09:37:11.968Z,86.55
2023-01-13T09:39:39.809Z,86.34
2023-01-13T09:42:26.912Z,84.79
2023-01-13T09:45:13.379Z,84.23
2023-01-13T09:47:44.587Z,84.18
2023-01-13T09:50:35.267Z,85.45
2023-01-13T09:53:02.247Z,84.78
2023-01-13T09:55:48.907Z,84.68
2023-01-13T09:58:18.881Z,85.67
2023-01-13T10:00:50.336Z,86.05
2023-01-13T10:03:33.505Z,86.10
2023-01-13T10:06:12.314Z,85.44
2023-01-13T10:08:40.352Z,84.79
2023-01-13T10:11:24.386Z,85.15
2023-01-13T10:13:59.106Z,86.44
2023-01-13T10:16:35.448Z,86.08
2023-01-13T10:19:20.918Z,84.42
2023-01-13T10:22:03.382Z,83.64
2023-01-13T10:24:45.381Z,84.30
2023-01-13T10:27:27.968Z,84.07
2023-01-13T10:29:54.826Z,84.09
2023-01-13T10:32:22.544Z,83.77
2023-01-13T10:34:50.912Z,83.35
2023-01-13T10:37:26.297Z,82.91
2023-01-13T10:39:56.946Z,82.12
2023-01-13T10:42:23.892Z,82.50
2023-01-13T10:44:51.610Z,83.61
2023-01-13T10:47:35.932Z,83.98
2023-01-13T10:50:09.638Z,83.37
2023-01-13T10:52:58.163Z,83.62
2023-01-13T10:55:34.375Z,81.88
2023-01-13T10:58:18.644Z,82.28
2023-01-13T11:00:45.763Z,81.22
2023-01-13T11:03:22.613Z,82.19
2023-01-13T11:05:54.859Z,80.93
2023-01-13T11:08:26.837Z,80.38
2023-01-13T11:10:55.417Z,80.94
2023-01-13T11:13:40.377Z,79.98
2023-01-13T11:16:14.656Z,78.79
2023-01-13T11:18:45.774Z,79.76
2023-01-13T11:21:22.879Z,78.98
2023-01-13T11:24:26.221Z,79.48
2023-01-13T11:26:59.493Z,80.26
2023-01-13T11:29:57.210Z,79.13
2023-01-13T11:32:24.062Z,80.88
2023-01-13T11:35:17.921Z,80.37
2023-01-13T11:37:47.751Z,80.26
2023-01-13T11:40:40.633Z,80.81
2023-01-13T11:43:38.533Z,79.71
2023-01-13T11:46:06.759Z,79.44
2023-01-13T11:48:37.359Z,79.35
2023-01-13T11:51:15.446Z,78.24
2023-01-13T11:54:05.528Z,79.74
2023-01-13T11:57:14.689Z,79.32
2023-01-13T11:59:56.326Z,77.91
2023-01-13T12:02:50.531Z,78.65
2023-01-13T12:05:36.731Z,78.57
2023-01-13T12:08:20.719Z,78.15
2023-01-13T12:11:09.551Z,78.73
2023-01-13T12:14:01.152Z,79.36
2023-01-13T12:16:31.724Z,78.47
2023-01-13T12:19:24.561Z,77.67
2023-01-13T12:22:15.625Z,78.08
2023-01-13T12:24:57.580Z,77.17
2023-01-13T12:27:47.788Z,77.00
2023-01-13T12:30:35.705Z,76.75
2023-01-13T12:33:18.788Z,75.43
2023-01-13T12:36:15.233Z,74.79
2023-01-13T12:38:46.180Z,73.95
2023-01-13T12:41:19.796Z,74.75
2023-01-13T12:43:48.785Z,75.17
2023-01-13T12:46:19.025Z,75.01
2023-01-13T12:48:49.576Z,75.82
2023-01-13T12:51:37.941Z,74.50
2023-01-13T12:54:53.923Z,74.42
2023-01-13T12:57:29.190Z,73.47
2023-01-13T13:00:05.305Z,74.91
2023-01-13T13:02:36.456Z,74.86
2023-01-13T13:05:28.215Z,75.07
2023-01-13T13:08:16.163Z,75.06
2023-01-13T13:10:47.812Z,75.04
2023-01-13T13:13:39.513Z,73.64
2023-01-13T13:16:49.084Z,73.94
2023-01-13T13:19:25.138Z,73.61
2023-01-13T13:22:12.297Z,74.05
2023-01-13T13:24:48.554Z,74.17
2023-01-13T13:27:24.655Z,75.08
2023-01-13T13:30:00.930Z,74.39
2023-01-13T13:32:42.712Z,72.47
2023-01-13T13:35:46.872Z,71.19
2023-01-13T13:38:40.859Z,71.33
2023-01-13T13:41:17.055Z,71.68
2023-01-13T13:43:44.989Z,70.68
2023-01-13T13:46:28.802Z,71.20
2023-01-13T13:48:55.568Z,71.73
2023-01-13T13:51:30.827Z,72.27
2023-01-13T13:53:58.231Z,72.17
2023-01-13T13:56:26.886Z,72.86
2023-01-13T13:58:55.267Z,72.50
2023-01-13T14:01:25.891Z,72.94
2023-01-13T14:04:13.891Z,72.94
2023-01-13T14:07:05.004Z,72.29
2023-01-13T14:09:41.080Z,71.76
2023-01-13T14:12:19.061Z,71.96
2023-01-13T14:14:46.655Z,71.60
2023-01-13T14:17:25.813Z,71.53
2023-01-13T14:20:06.125Z,71.79
2023-01-13T14:22:32.839Z,72.94
2023-01-13T14:25:02.598Z,72.93
2023-01-13T14:27:29.671Z,72.61
2023-01-13T14:29:58.293Z,72.44
2023-01-13T14:32:35.707Z,72.89
2023-01-13T14:35:06.102Z,73.35
2023-01-13T14:37:40.455Z,72.77
2023-01-13T14:40:33.769Z,72.82
2023-01-13T14:43:03.614Z,73.44
2023-01-13T14:45:30.501Z,74.39
2023-01-13T14:48:07.656Z,73.46
2023-01-13T14:50:34.373Z,74.16
2023-01-13T14:53:01.121Z,74.80
2023-01-13T14:55:34.467Z,74.12
2023-01-13T14:58:21.970Z,73.52
2023-01-13T15:00:50.433Z,73.90
2023-01-13T15:03:18.658Z,73.35
2023-01-13T15:05:53.601Z,73.25
2023-01-13T15:08:31.750Z,75.33
2023-01-13T15:11:03.249Z,76.28
2023-01-13T15:13:32.216Z,75.60
2023-01-13T15:16:00.098Z,75.58
2023-01-13T15:18:26.877Z,76.44
2023-01-13T15:20:53.583Z,76.26
2023-01-13T15:23:21.343Z,75.92
2023-01-13T15:25:51.171Z,75.98
2023-01-13T15:28:25.044Z,75.21
2023-01-13T15:30:52.763Z,75.81
2023-01-13T15:33:20.460Z,75.72
2023-01-13T15:35:51.104Z,75.94
2023-01-13T15:38:22.789Z,76.77
2023-01-13T15:40:50.498Z,76.80
2023-01-13T15:43:18.619Z,76.54
2023-01-13T15:45:45.788Z,77.15
2023-01-13T15:48:13.084Z,78.15
2023-01-13T15:50:46.342Z,78.36
2023-01-13T15:53:14.427Z,77.77
2023-01-13T15:58:24.536Z,76.71
2023-01-13T16:00:51.310Z,76.91
2023-01-13T16:03:18.211Z,76.00
2023-01-13T16:05:44.951Z,76.51
2023-01-13T16:08:15.687Z,74.94
2023-01-13T16:10:43.006Z,73.76
2023-01-13T16:13:09.720Z,73.14
2023-01-13T16:15:42.896Z,72.98
2023-01-13T16:18:16.160Z,72.62
2023-01-13T16:20:43.036Z,71.83
2023-01-13T16:23:10.308Z,70.59
2023-01-13T16:25:37.095Z,69.63
2023-01-13T16:28:04.113Z,70.22
2023-01-13T16:30:32.879Z,70.07
2023-01-13T16:33:00.540Z,71.02
2023-01-13T16:35:27.603Z,70.60
2023-01-13T16:37:57.541Z,70.93
2023-01-13T16:40:31.833Z,71.68
2023-01-13T16:42:58.750Z,71.81
2023-01-13T16:45:25.485Z,71.59
2023-01-13T16:47:52.967Z,72.67
2023-01-13T16:50:40.586Z,72.90
2023-01-13T16:53:11.251Z,72.85
2023-01-13T16:55:38.593Z,73.56
2023-01-13T16:58:05.662Z,73.15
2023-01-13T17:00:33.525Z,74.38
2023-01-13T17:03:00.627Z,73.02
2023-01-13T17:05:27.426Z,72.65
2023-01-13T17:07:57.053Z,72.21
2023-01-13T17:10:26.495Z,72.65
2023-01-13T17:12:54.010Z,72.79
2023-01-13T17:15:23.343Z,72.54
2023-01-13T17:17:50.153Z,73.26
2023-01-13T17:20:19.644Z,73.50
2023-01-13T17:22:57.720Z,73.56
2023-01-13T17:25:24.830Z,73.31
2023-01-13T17:27:56.661Z,72.42
2023-01-13T17:30:24.146Z,71.88
2023-01-13T17:32:51.188Z,71.64
2023-01-13T17:35:27.158Z,70.78
2023-01-13T17:37:55.036Z,70.11
2023-01-13T17:40:22.358Z,69.60
2023-01-13T17:42:49.578Z,68.70
2023-01-13T17:45:17.522Z,69.63
2023-01-13T17:47:45.189Z,69.80
2023-01-13T17:50:17.050Z,69.67
2023-01-13T17:52:43.753Z,68.45
2023-01-13T17:55:10.870Z,68.37
2023-01-13T17:57:38.105Z,68.56
2023-01-13T18:00:05.897Z,68.32
2023-01-13T18:02:33.195Z,67.58
2023-01-13T18:05:00.263Z,65.73
2023-01-13T18:07:27.182Z,64.36
2023-01-13T18:09:54.445Z,64.91
2023-01-13T18:12:21.445Z,62.31
2023-01-13T18:14:49.745Z,62.49
2023-01-13T18:17:16.934Z,63.19
2023-01-13T18:19:44.428Z,63.50
2023-01-13T18:22:14.578Z,62.78
2023-01-13T18:24:41.622Z,62.62
2023-01-13T18:27:14.909Z,64.59
2023-01-13T18:29:41.654Z,64.53
2023-01-13T18:32:08.824Z,64.49
2023-01-13T18:35:04.961Z,63.65
2023-01-13T18:37:32.836Z,64.07
2023-01-13T18:39:59.843Z,62.89
2023-01-13T18:42:26.912Z,63.18
2023-01-13T18:44:53.626Z,63.99
2023-01-13T18:47:20.546Z,63.39
2023-01-13T18:49:47.362Z,63.13
2023-01-13T18:52:14.853Z,63.86
2023-01-13T18:54:42.592Z,61.33
2023-01-13T18:57:09.798Z,61.26
2023-01-13T18:59:40.983Z,63.24
2023-01-13T19:02:14.433Z,62.77
2023-01-13T19:04:41.209Z,63.53
2023-01-13T19:07:07.934Z,64.67
2023-01-13T19:09:34.734Z,64.32
2023-01-13T19:12:04.308Z,65.23
2023-01-13T19:14:32.015Z,64.42
2023-01-13T19:17:02.471Z,63.53
2023-01-13T19:19:32.321Z,62.99
2023-01-13T19:22:01.925Z,65.68
2023-01-13T19:24:28.607Z,67.04
2023-01-13T19:26:55.920Z,67.73
2023-01-13T19:29:23.742Z,67.88
2023-01-13T19:31:50.407Z,66.94
2023-01-13T19:34:18.700Z,65.94
2023-01-13T19:36:45.626Z,64.80
2023-01-13T19:39:12.633Z,64.07
2023-01-13T19:41:39.621Z,66.75
2023-01-13T19:44:06.677Z,64.83
2023-01-13T19:46:33.703Z,64.65
2023-01-13T19:49:00.752Z,65.62
2023-01-13T19:53:04.286Z,68.23
2023-01-13T19:54:27.500Z,70.22
2023-01-13T19:56:54.213Z,70.67
2023-01-13T19:59:22.362Z,71.13
2023-01-13T20:01:51.901Z,71.91
2023-01-13T20:04:18.928Z,71.81
2023-01-13T20:06:45.695Z,71.92
2023-01-13T20:09:13.256Z,71.79
2023-01-13T20:11:39.925Z,72.21
2023-01-13T20:14:26.471Z,71.98
2023-01-13T20:16:56.105Z,72.05
2023-01-13T20:19:23.340Z,71.41
2023-01-13T20:21:51.307Z,71.11
2023-01-13T20:24:18.408Z,70.95
2023-01-13T20:26:45.504Z,70.86
2023-01-13T20:29:12.294Z,71.36
2023-01-13T20:31:43.312Z,71.28
2023-01-13T20:34:10.880Z,70.79
2023-01-13T20:36:38.409Z,70.73
2023-01-13T20:39:06.081Z,69.57
2023-01-13T20:41:32.758Z,69.28
2023-01-13T20:43:59.775Z,68.96
2023-01-13T20:46:29.392Z,69.49
2023-01-13T20:48:56.110Z,70.36
2023-01-13T20:51:26.294Z,70.28
2023-01-13T20:53:56.287Z,70.20
2023-01-13T20:56:23.322Z,71.79
2023-01-13T20:58:52.549Z,73.56
2023-01-13T21:01:22.337Z,73.69
2023-01-13T21:03:54.854Z,74.53
2023-01-13T21:06:21.954Z,74.44
2023-01-13T21:08:49.795Z,75.22
2023-01-13T21:11:16.832Z,74.73
2023-01-13T21:13:44.029Z,74.92
2023-01-13T21:16:14.174Z,74.99
2023-01-13T21:18:40.976Z,75.66
2023-01-13T21:21:08.664Z,74.47
2023-01-13T21:23:35.716Z,75.99
2023-01-13T21:26:04.897Z,75.66
2023-01-13T21:28:31.891Z,75.10
2023-01-13T21:31:05.918Z,75.89
2023-01-13T21:33:32.619Z,75.86
2023-01-13T21:36:06.957Z,74.79
2023-01-13T21:38:33.967Z,75.05
2023-01-13T21:41:02.430Z,74.66
2023-01-13T21:43:29.386Z,73.99
2023-01-13T21:45:56.511Z,73.44
2023-01-13T21:48:23.514Z,74.01
2023-01-13T21:50:50.556Z,74.10
2023-01-13T21:53:17.630Z,75.33
2023-01-13T21:55:44.671Z,75.08
2023-01-13T21:58:13.328Z,75.18
2023-01-13T22:00:42.667Z,74.75
2023-01-13T22:03:09.672Z,74.86
2023-01-13T22:05:39.306Z,74.46
2023-01-13T22:08:10.891Z,74.18
2023-01-13T22:10:38.103Z,72.86
2023-01-13T22:13:04.792Z,72.86
2023-01-13T22:15:56.660Z,71.49
2023-01-13T22:18:23.719Z,71.12
2023-01-13T22:20:50.517Z,71.15
2023-01-13T22:23:17.569Z,72.74
2023-01-13T22:25:44.327Z,71.53
2023-01-13T22:28:11.493Z,72.08
2023-01-13T22:30:38.980Z,72.92
2023-01-13T22:33:06.022Z,73.40
2023-01-13T22:35:33.072Z,72.76
2023-01-13T22:38:01.712Z,74.00
2023-01-13T22:40:31.717Z,75.50
2023-01-13T22:42:58.699Z,74.38
2023-01-13T22:45:25.697Z,74.77
2023-01-13T22:47:52.693Z,74.09
2023-01-13T22:50:19.584Z,74.35
2023-01-13T22:52:49.318Z,73.51
2023-01-13T22:55:16.247Z,73.60
2023-01-13T22:57:47.962Z,75.30
2023-01-13T23:00:16.376Z,74.28
2023-01-13T23:02:43.427Z,74.46
2023-01-13T23:05:10.143Z,74.19
2023-01-13T23:07:37.180Z,75.01
2023-01-13T23:10:04.390Z,75.71
2023-01-13T23:12:31.491Z,75.89
2023-01-13T23:14:58.486Z,75.12
2023-01-13T23:17:25.301Z,76.21
2023-01-13T23:19:55.342Z,76.20
2023-01-13T23:22:22.088Z,75.05
2023-01-13T23:24:49.110Z,74.51
2023-01-13T23:27:16.147Z,75.27
2023-01-13T23:29:43.159Z,75.09
2023-01-13T23:32:09.920Z,74.24
2023-01-13T23:34:36.970Z,74.31
2023-01-13T23:37:03.663Z,75.23
2023-01-13T23:39:30.689Z,75.55
2023-01-13T23:41:58.641Z,75.44
2023-01-13T23:44:26.842Z,76.11
2023-01-13T23:46:56.428Z,75.00
2023-01-13T23:49:23.885Z,75.30
2023-01-13T23:51:51.314Z,74.54
2023-01-13T23:54:18.106Z,74.18
2023-01-13T23:56:44.851Z,74.44
2023-01-13T23:59:13.058Z,74.61
